Terminal Aerodrome Forecast
Issued by NWS

Home | Current Version | Previous Version | Graphics & Text | Print | Product List | Glossary On
Versions: 1 2 3 4 5 6 7 8 9 10 11 12 13 14 15
000
FTUS45 KGGW 192333
TAFGDV
TAF
KGDV 192333Z 2000/2024 31014KT P6SM FEW110
     FM200200 33009KT P6SM FEW110
     FM200500 01006KT P6SM FEW140
     FM201300 09006KT P6SM SCT130
     FM201600 13008KT P6SM BKN110
     FM202300 18008KT P6SM SCT080=

USA.gov is the U.S. government's official web portal to all federal, state and local government web resources and services.